sensor_id;sensor_type;location;lat;lon;timestamp;P1;durP1;ratioP1;P2;durP2;ratioP2
10896;SDS011;5501;51.176;6.470;2022-12-18T00:00:17;13.40;;;7.75;;
10896;SDS011;5501;51.176;6.470;2022-12-18T00:05:19;16.98;;;7.20;;
10896;SDS011;5501;51.176;6.470;2022-12-18T00:10:21;12.82;;;6.85;;
10896;SDS011;5501;51.176;6.470;2022-12-18T00:15:22;15.95;;;8.32;;
10896;SDS011;5501;51.176;6.470;2022-12-18T00:20:23;14.30;;;7.53;;
10896;SDS011;5501;51.176;6.470;2022-12-18T00:25:26;12.85;;;7.72;;
10896;SDS011;5501;51.176;6.470;2022-12-18T00:30:28;13.80;;;8.55;;
10896;SDS011;5501;51.176;6.470;2022-12-18T00:35:29;11.57;;;6.75;;
10896;SDS011;5501;51.176;6.470;2022-12-18T00:40:30;19.23;;;8.77;;
10896;SDS011;5501;51.176;6.470;2022-12-18T00:45:32;11.50;;;6.80;;
10896;SDS011;5501;51.176;6.470;2022-12-18T00:50:33;29.90;;;7.90;;
10896;SDS011;5501;51.176;6.470;2022-12-18T00:55:35;11.57;;;6.85;;
10896;SDS011;5501;51.176;6.470;2022-12-18T01:00:38;13.82;;;5.68;;
10896;SDS011;5501;51.176;6.470;2022-12-18T01:05:40;14.77;;;7.57;;
10896;SDS011;5501;51.176;6.470;2022-12-18T01:10:42;11.65;;;8.10;;
10896;SDS011;5501;51.176;6.470;2022-12-18T01:15:50;11.68;;;6.60;;
10896;SDS011;5501;51.176;6.470;2022-12-18T01:20:51;10.07;;;6.00;;
10896;SDS011;5501;51.176;6.470;2022-12-18T01:25:52;8.77;;;6.05;;
10896;SDS011;5501;51.176;6.470;2022-12-18T01:30:54;14.45;;;8.13;;
10896;SDS011;5501;51.176;6.470;2022-12-18T01:35:55;12.27;;;7.10;;
10896;SDS011;5501;51.176;6.470;2022-12-18T01:41:00;15.32;;;6.68;;
10896;SDS011;5501;51.176;6.470;2022-12-18T01:46:01;19.35;;;7.50;;
10896;SDS011;5501;51.176;6.470;2022-12-18T01:51:04;11.15;;;6.45;;
10896;SDS011;5501;51.176;6.470;2022-12-18T01:56:06;12.07;;;7.43;;
10896;SDS011;5501;51.176;6.470;2022-12-18T02:01:08;11.68;;;6.30;;
10896;SDS011;5501;51.176;6.470;2022-12-18T02:06:13;16.17;;;7.53;;
10896;SDS011;5501;51.176;6.470;2022-12-18T02:11:18;17.23;;;8.73;;
10896;SDS011;5501;51.176;6.470;2022-12-18T02:16:34;15.00;;;7.10;;
10896;SDS011;5501;51.176;6.470;2022-12-18T02:21:45;13.55;;;8.43;;
10896;SDS011;5501;51.176;6.470;2022-12-18T02:26:50;9.25;;;5.45;;
10896;SDS011;5501;51.176;6.470;2022-12-18T02:36:57;16.23;;;6.43;;
10896;SDS011;5501;51.176;6.470;2022-12-18T02:42:00;10.82;;;6.78;;
10896;SDS011;5501;51.176;6.470;2022-12-18T02:47:09;11.20;;;5.53;;
10896;SDS011;5501;51.176;6.470;2022-12-18T02:52:15;15.57;;;5.88;;
10896;SDS011;5501;51.176;6.470;2022-12-18T02:57:23;12.30;;;6.33;;
10896;SDS011;5501;51.176;6.470;2022-12-18T03:02:27;16.20;;;8.07;;
10896;SDS011;5501;51.176;6.470;2022-12-18T03:08:18;11.13;;;6.05;;
10896;SDS011;5501;51.176;6.470;2022-12-18T03:12:59;11.38;;;6.68;;
10896;SDS011;5501;51.176;6.470;2022-12-18T03:23:09;11.25;;;6.78;;
10896;SDS011;5501;51.176;6.470;2022-12-18T03:28:15;14.18;;;8.05;;
10896;SDS011;5501;51.176;6.470;2022-12-18T03:33:24;12.80;;;5.95;;
10896;SDS011;5501;51.176;6.470;2022-12-18T03:38:28;11.10;;;7.18;;
10896;SDS011;5501;51.176;6.470;2022-12-18T03:48:52;12.02;;;6.57;;
10896;SDS011;5501;51.176;6.470;2022-12-18T03:59:01;12.98;;;6.65;;
10896;SDS011;5501;51.176;6.470;2022-12-18T04:04:05;15.98;;;7.47;;
10896;SDS011;5501;51.176;6.470;2022-12-18T04:09:11;13.27;;;7.93;;
10896;SDS011;5501;51.176;6.470;2022-12-18T04:14:17;17.42;;;7.55;;
10896;SDS011;5501;51.176;6.470;2022-12-18T04:19:22;13.85;;;6.95;;
10896;SDS011;5501;51.176;6.470;2022-12-18T04:24:26;12.55;;;6.15;;
10896;SDS011;5501;51.176;6.470;2022-12-18T04:29:38;8.88;;;5.60;;
10896;SDS011;5501;51.176;6.470;2022-12-18T04:34:39;8.57;;;6.07;;
10896;SDS011;5501;51.176;6.470;2022-12-18T04:39:41;14.85;;;6.57;;
10896;SDS011;5501;51.176;6.470;2022-12-18T04:44:49;8.93;;;5.40;;
10896;SDS011;5501;51.176;6.470;2022-12-18T04:49:50;11.18;;;5.72;;
10896;SDS011;5501;51.176;6.470;2022-12-18T04:54:52;13.18;;;7.72;;
10896;SDS011;5501;51.176;6.470;2022-12-18T04:59:53;9.90;;;5.88;;
10896;SDS011;5501;51.176;6.470;2022-12-18T05:04:55;10.52;;;6.30;;
10896;SDS011;5501;51.176;6.470;2022-12-18T05:09:56;12.40;;;7.22;;
10896;SDS011;5501;51.176;6.470;2022-12-18T05:14:57;10.90;;;6.88;;
10896;SDS011;5501;51.176;6.470;2022-12-18T05:19:59;12.43;;;6.88;;
10896;SDS011;5501;51.176;6.470;2022-12-18T05:25:00;11.15;;;5.25;;
10896;SDS011;5501;51.176;6.470;2022-12-18T05:30:02;16.30;;;6.68;;
10896;SDS011;5501;51.176;6.470;2022-12-18T05:35:04;15.50;;;7.20;;
10896;SDS011;5501;51.176;6.470;2022-12-18T05:40:05;13.52;;;6.78;;
10896;SDS011;5501;51.176;6.470;2022-12-18T05:45:07;13.02;;;7.13;;
10896;SDS011;5501;51.176;6.470;2022-12-18T05:50:08;11.38;;;7.35;;
10896;SDS011;5501;51.176;6.470;2022-12-18T05:55:10;10.40;;;6.38;;
10896;SDS011;5501;51.176;6.470;2022-12-18T06:00:11;9.65;;;5.75;;
10896;SDS011;5501;51.176;6.470;2022-12-18T06:05:13;11.50;;;7.50;;
10896;SDS011;5501;51.176;6.470;2022-12-18T06:10:15;14.60;;;7.13;;
10896;SDS011;5501;51.176;6.470;2022-12-18T06:15:16;15.05;;;8.30;;
10896;SDS011;5501;51.176;6.470;2022-12-18T06:20:18;11.77;;;7.75;;
10896;SDS011;5501;51.176;6.470;2022-12-18T06:25:19;15.15;;;7.40;;
10896;SDS011;5501;51.176;6.470;2022-12-18T06:30:21;15.07;;;8.05;;
10896;SDS011;5501;51.176;6.470;2022-12-18T06:35:22;14.90;;;7.60;;
10896;SDS011;5501;51.176;6.470;2022-12-18T06:40:24;11.40;;;6.65;;
10896;SDS011;5501;51.176;6.470;2022-12-18T06:45:25;20.33;;;8.73;;
10896;SDS011;5501;51.176;6.470;2022-12-18T06:50:27;13.45;;;6.47;;
10896;SDS011;5501;51.176;6.470;2022-12-18T06:55:28;12.65;;;7.88;;
10896;SDS011;5501;51.176;6.470;2022-12-18T07:00:30;12.52;;;7.40;;
10896;SDS011;5501;51.176;6.470;2022-12-18T07:05:31;14.30;;;9.23;;
10896;SDS011;5501;51.176;6.470;2022-12-18T07:10:33;11.10;;;7.32;;
10896;SDS011;5501;51.176;6.470;2022-12-18T07:15:34;14.23;;;8.57;;
10896;SDS011;5501;51.176;6.470;2022-12-18T07:20:35;12.95;;;7.30;;
10896;SDS011;5501;51.176;6.470;2022-12-18T07:25:37;13.00;;;8.15;;
10896;SDS011;5501;51.176;6.470;2022-12-18T07:30:38;12.75;;;7.95;;
10896;SDS011;5501;51.176;6.470;2022-12-18T07:35:40;18.80;;;7.90;;
10896;SDS011;5501;51.176;6.470;2022-12-18T07:40:41;13.55;;;6.57;;
10896;SDS011;5501;51.176;6.470;2022-12-18T07:45:43;23.00;;;7.63;;
10896;SDS011;5501;51.176;6.470;2022-12-18T07:50:44;19.77;;;9.88;;
10896;SDS011;5501;51.176;6.470;2022-12-18T07:55:46;17.50;;;8.30;;
10896;SDS011;5501;51.176;6.470;2022-12-18T08:01:08;11.32;;;7.10;;
10896;SDS011;5501;51.176;6.470;2022-12-18T08:06:11;27.38;;;9.18;;
10896;SDS011;5501;51.176;6.470;2022-12-18T08:11:13;12.23;;;8.07;;
10896;SDS011;5501;51.176;6.470;2022-12-18T08:16:14;17.02;;;8.10;;
10896;SDS011;5501;51.176;6.470;2022-12-18T08:21:16;12.57;;;7.40;;
10896;SDS011;5501;51.176;6.470;2022-12-18T08:26:22;11.95;;;7.70;;
10896;SDS011;5501;51.176;6.470;2022-12-18T08:31:24;13.05;;;7.50;;
10896;SDS011;5501;51.176;6.470;2022-12-18T08:36:26;13.05;;;8.23;;
10896;SDS011;5501;51.176;6.470;2022-12-18T08:41:27;12.85;;;7.32;;
10896;SDS011;5501;51.176;6.470;2022-12-18T08:46:32;20.75;;;8.48;;
10896;SDS011;5501;51.176;6.470;2022-12-18T08:51:34;12.32;;;7.97;;
10896;SDS011;5501;51.176;6.470;2022-12-18T08:56:37;19.65;;;8.07;;
10896;SDS011;5501;51.176;6.470;2022-12-18T09:01:38;14.20;;;7.85;;
10896;SDS011;5501;51.176;6.470;2022-12-18T09:06:40;13.65;;;7.50;;
10896;SDS011;5501;51.176;6.470;2022-12-18T09:11:41;11.13;;;7.25;;
10896;SDS011;5501;51.176;6.470;2022-12-18T09:16:42;13.35;;;7.93;;
10896;SDS011;5501;51.176;6.470;2022-12-18T09:21:44;16.25;;;7.68;;
10896;SDS011;5501;51.176;6.470;2022-12-18T09:26:48;13.02;;;8.73;;
10896;SDS011;5501;51.176;6.470;2022-12-18T09:31:58;16.52;;;8.27;;
10896;SDS011;5501;51.176;6.470;2022-12-18T09:36:59;14.00;;;7.93;;
10896;SDS011;5501;51.176;6.470;2022-12-18T09:42:01;13.55;;;7.22;;
10896;SDS011;5501;51.176;6.470;2022-12-18T09:47:04;16.50;;;9.40;;
10896;SDS011;5501;51.176;6.470;2022-12-18T09:52:15;16.43;;;8.13;;
10896;SDS011;5501;51.176;6.470;2022-12-18T09:57:20;18.47;;;7.77;;
10896;SDS011;5501;51.176;6.470;2022-12-18T10:02:23;11.85;;;7.03;;
10896;SDS011;5501;51.176;6.470;2022-12-18T10:07:32;11.95;;;6.95;;
10896;SDS011;5501;51.176;6.470;2022-12-18T10:12:42;12.65;;;7.47;;
10896;SDS011;5501;51.176;6.470;2022-12-18T10:17:51;17.60;;;8.90;;
10896;SDS011;5501;51.176;6.470;2022-12-18T10:23:05;17.75;;;9.20;;
10896;SDS011;5501;51.176;6.470;2022-12-18T10:28:13;14.07;;;6.90;;
10896;SDS011;5501;51.176;6.470;2022-12-18T10:33:15;10.05;;;6.55;;
10896;SDS011;5501;51.176;6.470;2022-12-18T10:43:20;14.70;;;7.32;;
10896;SDS011;5501;51.176;6.470;2022-12-18T10:48:21;14.07;;;7.20;;
10896;SDS011;5501;51.176;6.470;2022-12-18T10:53:27;11.85;;;7.65;;
10896;SDS011;5501;51.176;6.470;2022-12-18T10:58:35;14.45;;;8.20;;
10896;SDS011;5501;51.176;6.470;2022-12-18T11:08:39;12.02;;;7.95;;
10896;SDS011;5501;51.176;6.470;2022-12-18T11:13:42;10.70;;;7.85;;
10896;SDS011;5501;51.176;6.470;2022-12-18T11:18:49;12.52;;;7.47;;
10896;SDS011;5501;51.176;6.470;2022-12-18T11:23:51;14.68;;;7.93;;
10896;SDS011;5501;51.176;6.470;2022-12-18T11:29:07;14.35;;;7.25;;
10896;SDS011;5501;51.176;6.470;2022-12-18T11:49:37;12.93;;;8.07;;
10896;SDS011;5501;51.176;6.470;2022-12-18T11:54:41;14.02;;;8.38;;
10896;SDS011;5501;51.176;6.470;2022-12-18T12:10:26;17.33;;;8.23;;
10896;SDS011;5501;51.176;6.470;2022-12-18T12:21:09;16.52;;;9.07;;
10896;SDS011;5501;51.176;6.470;2022-12-18T12:26:22;12.82;;;8.18;;
10896;SDS011;5501;51.176;6.470;2022-12-18T12:41:42;17.38;;;8.73;;
10896;SDS011;5501;51.176;6.470;2022-12-18T12:47:05;18.98;;;7.97;;
10896;SDS011;5501;51.176;6.470;2022-12-18T12:52:12;16.50;;;9.48;;
10896;SDS011;5501;51.176;6.470;2022-12-18T12:57:37;14.95;;;8.27;;
10896;SDS011;5501;51.176;6.470;2022-12-18T13:07:55;18.10;;;8.23;;
10896;SDS011;5501;51.176;6.470;2022-12-18T13:33:45;19.15;;;9.15;;
10896;SDS011;5501;51.176;6.470;2022-12-18T13:39:31;15.90;;;9.95;;
10896;SDS011;5501;51.176;6.470;2022-12-18T13:44:36;18.40;;;9.05;;
10896;SDS011;5501;51.176;6.470;2022-12-18T13:49:42;17.55;;;9.07;;
10896;SDS011;5501;51.176;6.470;2022-12-18T13:54:45;13.50;;;7.97;;
10896;SDS011;5501;51.176;6.470;2022-12-18T13:59:48;17.85;;;9.88;;
10896;SDS011;5501;51.176;6.470;2022-12-18T14:04:49;18.10;;;9.68;;
10896;SDS011;5501;51.176;6.470;2022-12-18T14:09:52;19.25;;;8.57;;
10896;SDS011;5501;51.176;6.470;2022-12-18T14:15:20;19.13;;;9.27;;
10896;SDS011;5501;51.176;6.470;2022-12-18T14:20:24;15.98;;;8.70;;
10896;SDS011;5501;51.176;6.470;2022-12-18T14:25:27;13.18;;;7.35;;
10896;SDS011;5501;51.176;6.470;2022-12-18T14:30:35;21.88;;;10.32;;
10896;SDS011;5501;51.176;6.470;2022-12-18T14:35:38;19.38;;;11.23;;
10896;SDS011;5501;51.176;6.470;2022-12-18T14:40:40;18.15;;;8.52;;
10896;SDS011;5501;51.176;6.470;2022-12-18T14:45:43;17.15;;;9.00;;
10896;SDS011;5501;51.176;6.470;2022-12-18T14:50:54;18.35;;;9.60;;
10896;SDS011;5501;51.176;6.470;2022-12-18T14:55:56;20.83;;;9.90;;
10896;SDS011;5501;51.176;6.470;2022-12-18T15:00:58;17.63;;;9.45;;
10896;SDS011;5501;51.176;6.470;2022-12-18T15:06:14;18.20;;;9.68;;
10896;SDS011;5501;51.176;6.470;2022-12-18T15:16:27;17.88;;;9.20;;
10896;SDS011;5501;51.176;6.470;2022-12-18T15:21:29;16.73;;;10.18;;
10896;SDS011;5501;51.176;6.470;2022-12-18T15:26:34;17.70;;;10.77;;
10896;SDS011;5501;51.176;6.470;2022-12-18T15:31:37;14.13;;;8.40;;
10896;SDS011;5501;51.176;6.470;2022-12-18T15:36:38;16.35;;;8.52;;
10896;SDS011;5501;51.176;6.470;2022-12-18T15:41:41;23.80;;;10.30;;
10896;SDS011;5501;51.176;6.470;2022-12-18T15:47:02;17.05;;;9.35;;
10896;SDS011;5501;51.176;6.470;2022-12-18T15:52:04;19.92;;;9.75;;
10896;SDS011;5501;51.176;6.470;2022-12-18T15:57:09;21.30;;;10.73;;
10896;SDS011;5501;51.176;6.470;2022-12-18T16:02:26;19.70;;;9.32;;
10896;SDS011;5501;51.176;6.470;2022-12-18T16:07:29;21.50;;;10.68;;
10896;SDS011;5501;51.176;6.470;2022-12-18T16:12:31;19.80;;;10.57;;
10896;SDS011;5501;51.176;6.470;2022-12-18T16:17:32;20.35;;;10.07;;
10896;SDS011;5501;51.176;6.470;2022-12-18T16:22:34;19.52;;;10.57;;
10896;SDS011;5501;51.176;6.470;2022-12-18T16:27:35;17.38;;;9.95;;
10896;SDS011;5501;51.176;6.470;2022-12-18T16:32:37;22.25;;;9.82;;
10896;SDS011;5501;51.176;6.470;2022-12-18T16:37:39;17.67;;;9.63;;
10896;SDS011;5501;51.176;6.470;2022-12-18T16:42:41;18.60;;;11.48;;
10896;SDS011;5501;51.176;6.470;2022-12-18T16:47:43;21.60;;;9.88;;
10896;SDS011;5501;51.176;6.470;2022-12-18T16:52:44;22.40;;;9.68;;
10896;SDS011;5501;51.176;6.470;2022-12-18T16:57:46;23.27;;;11.52;;
10896;SDS011;5501;51.176;6.470;2022-12-18T17:02:47;23.42;;;9.73;;
10896;SDS011;5501;51.176;6.470;2022-12-18T17:07:49;21.65;;;11.13;;
10896;SDS011;5501;51.176;6.470;2022-12-18T17:12:50;20.00;;;11.38;;
10896;SDS011;5501;51.176;6.470;2022-12-18T17:17:51;19.42;;;10.50;;
10896;SDS011;5501;51.176;6.470;2022-12-18T17:22:53;24.50;;;11.55;;
10896;SDS011;5501;51.176;6.470;2022-12-18T17:27:59;22.63;;;10.23;;
10896;SDS011;5501;51.176;6.470;2022-12-18T17:33:00;18.88;;;11.68;;
10896;SDS011;5501;51.176;6.470;2022-12-18T17:38:02;21.92;;;11.60;;
10896;SDS011;5501;51.176;6.470;2022-12-18T17:43:03;21.70;;;11.40;;
10896;SDS011;5501;51.176;6.470;2022-12-18T17:48:05;17.98;;;10.05;;
10896;SDS011;5501;51.176;6.470;2022-12-18T17:53:07;28.55;;;12.98;;
10896;SDS011;5501;51.176;6.470;2022-12-18T17:58:08;27.33;;;12.25;;
10896;SDS011;5501;51.176;6.470;2022-12-18T18:03:10;33.75;;;15.52;;
10896;SDS011;5501;51.176;6.470;2022-12-18T18:08:11;21.40;;;11.38;;
10896;SDS011;5501;51.176;6.470;2022-12-18T18:13:18;25.63;;;12.15;;
10896;SDS011;5501;51.176;6.470;2022-12-18T18:18:46;27.33;;;12.55;;
10896;SDS011;5501;51.176;6.470;2022-12-18T18:23:48;20.35;;;11.90;;
10896;SDS011;5501;51.176;6.470;2022-12-18T18:28:52;22.77;;;12.38;;
10896;SDS011;5501;51.176;6.470;2022-12-18T18:33:54;24.95;;;11.68;;
10896;SDS011;5501;51.176;6.470;2022-12-18T18:38:59;19.83;;;12.05;;
10896;SDS011;5501;51.176;6.470;2022-12-18T18:44:01;20.08;;;11.40;;
10896;SDS011;5501;51.176;6.470;2022-12-18T18:49:02;23.20;;;13.02;;
10896;SDS011;5501;51.176;6.470;2022-12-18T18:54:05;23.77;;;11.45;;
10896;SDS011;5501;51.176;6.470;2022-12-18T18:59:07;31.60;;;13.80;;
10896;SDS011;5501;51.176;6.470;2022-12-18T19:04:08;25.80;;;12.93;;
10896;SDS011;5501;51.176;6.470;2022-12-18T19:09:09;26.10;;;12.88;;
10896;SDS011;5501;51.176;6.470;2022-12-18T19:14:11;28.77;;;12.77;;
10896;SDS011;5501;51.176;6.470;2022-12-18T19:19:13;23.38;;;11.85;;
10896;SDS011;5501;51.176;6.470;2022-12-18T19:24:15;24.98;;;11.30;;
10896;SDS011;5501;51.176;6.470;2022-12-18T19:29:16;24.42;;;13.68;;
10896;SDS011;5501;51.176;6.470;2022-12-18T19:34:18;37.35;;;14.48;;
10896;SDS011;5501;51.176;6.470;2022-12-18T19:39:19;28.17;;;14.50;;
10896;SDS011;5501;51.176;6.470;2022-12-18T19:44:21;23.05;;;13.55;;
10896;SDS011;5501;51.176;6.470;2022-12-18T19:49:22;26.90;;;12.77;;
10896;SDS011;5501;51.176;6.470;2022-12-18T19:54:24;29.38;;;14.05;;
10896;SDS011;5501;51.176;6.470;2022-12-18T19:59:26;26.38;;;13.50;;
10896;SDS011;5501;51.176;6.470;2022-12-18T20:04:28;26.00;;;12.65;;
10896;SDS011;5501;51.176;6.470;2022-12-18T20:09:29;31.90;;;13.82;;
10896;SDS011;5501;51.176;6.470;2022-12-18T20:14:31;23.38;;;13.43;;
10896;SDS011;5501;51.176;6.470;2022-12-18T20:19:32;26.98;;;12.25;;
10896;SDS011;5501;51.176;6.470;2022-12-18T20:24:54;35.13;;;15.18;;
10896;SDS011;5501;51.176;6.470;2022-12-18T20:29:55;32.08;;;14.93;;
10896;SDS011;5501;51.176;6.470;2022-12-18T20:34:58;31.50;;;14.43;;
10896;SDS011;5501;51.176;6.470;2022-12-18T20:40:04;35.75;;;14.85;;
10896;SDS011;5501;51.176;6.470;2022-12-18T20:45:06;26.90;;;14.68;;
10896;SDS011;5501;51.176;6.470;2022-12-18T20:50:08;36.00;;;13.10;;
10896;SDS011;5501;51.176;6.470;2022-12-18T20:55:09;30.77;;;14.52;;
10896;SDS011;5501;51.176;6.470;2022-12-18T21:00:11;27.52;;;14.48;;
10896;SDS011;5501;51.176;6.470;2022-12-18T21:05:13;29.38;;;14.05;;
10896;SDS011;5501;51.176;6.470;2022-12-18T21:10:15;25.10;;;12.48;;
10896;SDS011;5501;51.176;6.470;2022-12-18T21:15:16;27.73;;;13.18;;
10896;SDS011;5501;51.176;6.470;2022-12-18T21:20:18;26.38;;;13.15;;
10896;SDS011;5501;51.176;6.470;2022-12-18T21:25:19;27.23;;;11.85;;
10896;SDS011;5501;51.176;6.470;2022-12-18T21:30:21;27.67;;;12.70;;
10896;SDS011;5501;51.176;6.470;2022-12-18T21:35:22;27.13;;;12.60;;
10896;SDS011;5501;51.176;6.470;2022-12-18T21:40:27;32.65;;;14.35;;
10896;SDS011;5501;51.176;6.470;2022-12-18T21:45:28;25.73;;;13.27;;
10896;SDS011;5501;51.176;6.470;2022-12-18T21:50:32;28.23;;;13.27;;
10896;SDS011;5501;51.176;6.470;2022-12-18T21:55:33;25.70;;;14.32;;
10896;SDS011;5501;51.176;6.470;2022-12-18T22:00:35;42.20;;;15.02;;
10896;SDS011;5501;51.176;6.470;2022-12-18T22:05:36;25.58;;;14.27;;
10896;SDS011;5501;51.176;6.470;2022-12-18T22:10:37;27.60;;;13.70;;
10896;SDS011;5501;51.176;6.470;2022-12-18T22:15:39;25.10;;;15.23;;
10896;SDS011;5501;51.176;6.470;2022-12-18T22:20:40;29.77;;;14.35;;
10896;SDS011;5501;51.176;6.470;2022-12-18T22:25:42;29.08;;;16.45;;
10896;SDS011;5501;51.176;6.470;2022-12-18T22:30:43;27.25;;;14.38;;
10896;SDS011;5501;51.176;6.470;2022-12-18T22:35:44;31.45;;;14.60;;
10896;SDS011;5501;51.176;6.470;2022-12-18T22:40:46;29.90;;;13.23;;
10896;SDS011;5501;51.176;6.470;2022-12-18T22:45:47;34.78;;;14.70;;
10896;SDS011;5501;51.176;6.470;2022-12-18T22:50:49;32.92;;;14.27;;
10896;SDS011;5501;51.176;6.470;2022-12-18T22:55:59;35.80;;;14.77;;
10896;SDS011;5501;51.176;6.470;2022-12-18T23:01:00;29.25;;;13.25;;
10896;SDS011;5501;51.176;6.470;2022-12-18T23:06:03;33.13;;;15.85;;
10896;SDS011;5501;51.176;6.470;2022-12-18T23:11:04;34.60;;;14.50;;
10896;SDS011;5501;51.176;6.470;2022-12-18T23:16:07;35.95;;;16.27;;
10896;SDS011;5501;51.176;6.470;2022-12-18T23:21:13;26.77;;;14.15;;
10896;SDS011;5501;51.176;6.470;2022-12-18T23:26:17;31.38;;;14.15;;
10896;SDS011;5501;51.176;6.470;2022-12-18T23:31:20;27.70;;;14.68;;
10896;SDS011;5501;51.176;6.470;2022-12-18T23:36:23;31.15;;;14.32;;
10896;SDS011;5501;51.176;6.470;2022-12-18T23:41:26;33.58;;;15.32;;
10896;SDS011;5501;51.176;6.470;2022-12-18T23:46:31;31.05;;;14.23;;
10896;SDS011;5501;51.176;6.470;2022-12-18T23:51:33;38.17;;;15.13;;
10896;SDS011;5501;51.176;6.470;2022-12-18T23:56:36;27.63;;;14.95;;
